createdAt,value
2018-04-08T00:00:51.196Z,54.04
2018-04-08T00:03:19.458Z,54.37
2018-04-08T00:05:48.477Z,54.22
2018-04-08T00:08:16.742Z,54.01
2018-04-08T00:10:44.988Z,54.18
2018-04-08T00:13:14.016Z,53.91
2018-04-08T00:15:42.262Z,53.60
2018-04-08T00:18:11.269Z,53.62
2018-04-08T00:20:39.520Z,53.47
2018-04-08T00:23:07.773Z,54.09
2018-04-08T00:25:36.011Z,53.94
2018-04-08T00:28:04.264Z,54.25
2018-04-08T00:30:33.275Z,54.13
2018-04-08T00:33:01.530Z,54.29
2018-04-08T00:35:30.541Z,54.53
2018-04-08T00:37:58.794Z,54.67
2018-04-08T00:40:27.802Z,55.27
2018-04-08T00:42:56.058Z,55.33
2018-04-08T00:45:24.308Z,55.41
2018-04-08T00:47:52.557Z,55.55
2018-04-08T00:50:20.798Z,55.70
2018-04-08T00:52:49.817Z,55.42
2018-04-08T00:55:18.073Z,55.69
2018-04-08T00:57:46.328Z,55.90
2018-04-08T01:00:15.337Z,56.73
2018-04-08T01:02:43.587Z,56.86
2018-04-08T01:05:11.826Z,56.83
2018-04-08T01:07:40.854Z,56.76
2018-04-08T01:10:09.093Z,56.85
2018-04-08T01:12:37.340Z,56.69
2018-04-08T01:15:05.596Z,57.26
2018-04-08T01:17:34.609Z,57.18
2018-04-08T01:20:02.861Z,57.34
2018-04-08T01:22:31.106Z,57.35
2018-04-08T01:24:59.343Z,57.36
2018-04-08T01:27:27.592Z,57.40
2018-04-08T01:29:56.604Z,57.59
2018-04-08T01:32:24.857Z,57.95
2018-04-08T01:34:53.865Z,58.18
2018-04-08T01:37:22.120Z,58.28
2018-04-08T01:39:50.353Z,58.39
2018-04-08T01:42:18.598Z,58.56
2018-04-08T01:44:46.852Z,58.67
2018-04-08T01:47:15.869Z,58.84
2018-04-08T01:49:44.125Z,59.01
2018-04-08T01:52:13.132Z,59.13
2018-04-08T01:54:41.381Z,59.29
2018-04-08T01:57:09.627Z,59.32
2018-04-08T01:59:37.879Z,59.50
2018-04-08T02:02:06.124Z,59.77
2018-04-08T02:04:35.145Z,60.02
2018-04-08T02:07:03.380Z,60.29
2018-04-08T02:09:32.397Z,60.83
2018-04-08T02:12:00.645Z,61.46
2018-04-08T02:14:29.665Z,61.51
2018-04-08T02:16:57.916Z,61.74
2018-04-08T02:19:26.207Z,62.22
2018-04-08T02:21:54.404Z,62.12
2018-04-08T02:24:22.655Z,62.25
2018-04-08T02:26:51.661Z,62.80
2018-04-08T02:29:19.920Z,62.84
2018-04-08T02:31:48.925Z,63.08
2018-04-08T02:34:17.179Z,63.17
2018-04-08T02:36:46.189Z,63.74
2018-04-08T02:39:15.206Z,63.58
2018-04-08T02:41:43.461Z,63.55
2018-04-08T02:44:11.713Z,63.90
2018-04-08T02:46:39.949Z,64.03
2018-04-08T02:49:08.200Z,64.26
2018-04-08T02:51:36.440Z,64.65
2018-04-08T02:54:05.459Z,64.38
2018-04-08T02:56:33.709Z,64.25
2018-04-08T02:59:02.735Z,64.30
2018-04-08T03:01:30.975Z,64.22
2018-04-08T03:03:59.225Z,64.28
2018-04-08T03:06:27.476Z,64.37
2018-04-08T03:08:55.730Z,64.39
2018-04-08T03:11:23.974Z,64.53
2018-04-08T03:13:52.221Z,64.65
2018-04-08T03:16:20.471Z,64.95
2018-04-08T03:18:48.724Z,65.29
2018-04-08T03:21:16.978Z,65.45
2018-04-08T03:23:45.239Z,65.71
2018-04-08T03:26:13.486Z,66.23
2018-04-08T03:28:41.738Z,66.44
2018-04-08T03:31:09.982Z,66.67
2018-04-08T03:33:39.005Z,66.47
2018-04-08T03:36:07.245Z,66.61
2018-04-08T03:38:35.514Z,66.71
2018-04-08T03:41:03.745Z,67.10
2018-04-08T03:43:31.994Z,67.11
2018-04-08T03:46:00.301Z,66.97
2018-04-08T03:48:28.579Z,67.27
2018-04-08T03:50:56.827Z,67.44
2018-04-08T03:53:25.085Z,68.02
2018-04-08T03:55:54.096Z,68.12
2018-04-08T03:58:22.342Z,68.49
2018-04-08T04:00:51.366Z,68.47
2018-04-08T04:03:19.613Z,68.72
2018-04-08T04:05:47.870Z,68.65
2018-04-08T04:08:16.114Z,68.47
2018-04-08T04:10:44.370Z,68.36
2018-04-08T04:13:12.610Z,68.25
2018-04-08T04:15:40.862Z,68.49
2018-04-08T04:18:26.963Z,68.78
2018-04-08T04:21:12.956Z,68.99
2018-04-08T04:23:58.970Z,68.76
2018-04-08T04:26:31.753Z,68.61
2018-04-08T04:29:00.873Z,68.66
2018-04-08T04:31:29.130Z,68.83
2018-04-08T04:33:58.167Z,69.18
2018-04-08T04:36:26.392Z,69.46
2018-04-08T04:38:55.405Z,69.70
2018-04-08T04:41:23.662Z,69.82
2018-04-08T04:43:52.672Z,69.75
2018-04-08T04:46:20.933Z,69.96
2018-04-08T04:48:49.941Z,70.09
2018-04-08T04:51:18.226Z,70.14
2018-04-08T04:53:47.213Z,70.19
2018-04-08T04:56:15.465Z,70.03
2018-04-08T04:58:44.469Z,70.17
2018-04-08T05:01:13.486Z,70.08
2018-04-08T05:03:41.737Z,70.00
2018-04-08T05:06:10.747Z,70.36
2018-04-08T05:08:38.992Z,70.63
2018-04-08T05:11:07.241Z,70.43
2018-04-08T05:13:35.489Z,70.67
2018-04-08T05:16:03.742Z,70.58
2018-04-08T05:18:31.990Z,70.70
2018-04-08T05:21:00.238Z,70.75
2018-04-08T05:23:28.483Z,70.77
2018-04-08T05:25:56.734Z,70.84
2018-04-08T05:28:25.752Z,70.52
2018-04-08T05:30:54.024Z,70.54
2018-04-08T05:33:22.265Z,70.54
2018-04-08T05:35:50.509Z,70.55
2018-04-08T05:38:18.762Z,70.59
2018-04-08T05:40:47.017Z,70.62
2018-04-08T05:43:15.267Z,70.53
2018-04-08T05:45:44.288Z,70.58
2018-04-08T05:48:12.534Z,70.67
2018-04-08T05:50:41.554Z,70.71
2018-04-08T05:53:09.799Z,70.99
2018-04-08T05:55:38.051Z,70.54
2018-04-08T05:58:06.326Z,70.34
2018-04-08T06:00:34.545Z,70.08
2018-04-08T06:03:03.566Z,69.76
2018-04-08T06:05:31.802Z,69.42
2018-04-08T06:08:00.822Z,69.80
2018-04-08T06:10:29.067Z,69.08
2018-04-08T06:12:58.086Z,68.85
2018-04-08T06:15:26.337Z,69.29
2018-04-08T06:17:55.358Z,68.75
2018-04-08T06:20:23.593Z,69.26
2018-04-08T06:22:51.860Z,68.82
2018-04-08T06:25:20.106Z,68.67
2018-04-08T06:27:48.354Z,68.38
2018-04-08T06:30:16.601Z,68.61
2018-04-08T06:32:44.855Z,68.53
2018-04-08T06:35:13.095Z,67.84
2018-04-08T06:37:41.348Z,67.54
2018-04-08T06:40:09.605Z,67.45
2018-04-08T06:42:37.858Z,67.54
2018-04-08T06:45:06.115Z,67.38
2018-04-08T06:47:34.371Z,67.02
2018-04-08T06:50:02.609Z,66.60
2018-04-08T06:52:31.629Z,66.38
2018-04-08T06:54:59.881Z,66.04
2018-04-08T06:57:28.903Z,65.94
2018-04-08T06:59:57.145Z,65.45
2018-04-08T07:02:26.172Z,65.81
2018-04-08T07:04:54.417Z,65.46
2018-04-08T07:07:23.448Z,64.37
2018-04-08T07:09:51.717Z,63.80
2018-04-08T07:12:19.978Z,63.78
2018-04-08T07:14:48.233Z,63.69
2018-04-08T07:17:16.495Z,63.32
2018-04-08T07:19:44.753Z,62.73
2018-04-08T07:22:13.011Z,61.98
2018-04-08T07:24:41.317Z,61.71
2018-04-08T07:27:09.530Z,62.11
2018-04-08T07:29:38.551Z,61.38
2018-04-08T07:32:06.810Z,60.49
2018-04-08T07:34:35.066Z,60.52
2018-04-08T07:37:04.097Z,59.82
2018-04-08T07:39:32.345Z,59.40
2018-04-08T07:42:00.613Z,59.76
2018-04-08T07:44:29.633Z,59.36
2018-04-08T07:46:57.899Z,58.83
2018-04-08T07:49:26.149Z,59.91
2018-04-08T07:51:55.174Z,59.01
2018-04-08T07:54:23.425Z,58.57
2018-04-08T07:56:51.702Z,58.26
2018-04-08T07:59:20.720Z,59.50
2018-04-08T08:01:48.982Z,58.24
2018-04-08T08:04:17.237Z,56.89
2018-04-08T08:06:46.268Z,56.97
2018-04-08T08:09:14.529Z,57.20
2018-04-08T08:11:42.793Z,56.55
2018-04-08T08:14:11.046Z,56.66
2018-04-08T08:16:40.079Z,57.36
2018-04-08T08:19:08.338Z,56.38
2018-04-08T08:21:37.371Z,56.31
2018-04-08T08:24:05.617Z,56.25
2018-04-08T08:26:33.882Z,56.14
2018-04-08T08:29:02.901Z,56.15
2018-04-08T08:31:31.169Z,55.92
2018-04-08T08:33:59.426Z,56.39
2018-04-08T08:36:28.459Z,56.21
2018-04-08T08:38:56.722Z,56.07
2018-04-08T08:41:24.969Z,54.58
2018-04-08T08:43:54.002Z,54.51
2018-04-08T08:46:22.258Z,54.54
2018-04-08T08:48:50.518Z,53.87
2018-04-08T08:51:18.779Z,53.96
2018-04-08T08:53:47.802Z,53.93
2018-04-08T08:56:16.058Z,53.79
2018-04-08T08:58:45.125Z,54.42
2018-04-08T09:01:13.336Z,54.01
2018-04-08T09:03:41.604Z,53.39
2018-04-08T09:06:10.621Z,53.67
2018-04-08T09:08:38.886Z,53.32
2018-04-08T09:11:07.142Z,52.66
2018-04-08T09:13:36.175Z,53.34
2018-04-08T09:16:04.422Z,53.21
2018-04-08T09:18:33.451Z,52.16
2018-04-08T09:24:18.190Z,51.42
2018-04-08T09:26:47.201Z,51.18
2018-04-08T09:29:15.459Z,51.16
2018-04-08T09:31:44.480Z,50.20
2018-04-08T09:34:12.733Z,49.49
2018-04-08T09:36:41.746Z,51.72
2018-04-08T09:39:10.009Z,50.89
2018-04-08T09:41:38.256Z,50.72
2018-04-08T09:44:06.513Z,50.52
2018-04-08T09:46:34.758Z,50.55
2018-04-08T09:49:03.015Z,49.68
2018-04-08T09:51:31.262Z,50.92
2018-04-08T09:54:00.289Z,49.78
2018-04-08T09:56:28.538Z,49.54
2018-04-08T09:58:57.566Z,50.25
2018-04-08T10:01:31.097Z,50.84
2018-04-08T10:03:59.356Z,49.64
2018-04-08T10:06:27.606Z,49.83
2018-04-08T10:08:55.859Z,50.69
2018-04-08T10:11:24.872Z,48.40
2018-04-08T10:13:53.134Z,47.67
2018-04-08T10:16:22.150Z,47.75
2018-04-08T10:18:50.409Z,47.96
2018-04-08T10:21:18.665Z,47.74
2018-04-08T10:23:47.689Z,47.45
2018-04-08T10:26:15.938Z,47.71
2018-04-08T10:28:44.968Z,47.08
2018-04-08T10:31:13.238Z,48.10
2018-04-08T10:33:41.500Z,46.72
2018-04-08T10:36:09.750Z,46.67
2018-04-08T10:38:38.768Z,47.47
2018-04-08T10:41:07.029Z,44.97
2018-04-08T10:43:36.055Z,45.49
2018-04-08T10:46:04.301Z,45.99
2018-04-08T10:48:33.329Z,44.83
2018-04-08T10:51:01.577Z,46.05
2018-04-08T10:53:30.597Z,44.19
2018-04-08T10:55:58.850Z,44.55
2018-04-08T10:58:27.102Z,43.81
2018-04-08T11:00:56.123Z,44.62
2018-04-08T11:03:24.388Z,43.50
2018-04-08T11:05:53.402Z,41.91
2018-04-08T11:08:21.649Z,40.63
2018-04-08T11:10:50.674Z,38.93
2018-04-08T11:13:18.926Z,39.80
2018-04-08T11:15:47.950Z,40.48
2018-04-08T11:18:16.201Z,41.01
2018-04-08T11:20:44.461Z,39.08
2018-04-08T11:23:13.480Z,39.93
2018-04-08T11:25:41.743Z,37.12
2018-04-08T11:28:09.994Z,37.90
2018-04-08T11:30:38.251Z,41.09
2018-04-08T11:33:06.508Z,39.18
2018-04-08T11:35:34.758Z,37.93
2018-04-08T11:38:03.007Z,37.03
2018-04-08T11:40:32.032Z,40.45
2018-04-08T11:43:00.277Z,40.17
2018-04-08T11:45:29.309Z,39.20
2018-04-08T11:47:57.553Z,37.83
2018-04-08T11:50:26.579Z,35.96
2018-04-08T11:52:54.831Z,34.45
2018-04-08T11:55:23.088Z,36.15
2018-04-08T11:57:52.119Z,35.33
2018-04-08T12:00:20.377Z,35.81
2018-04-08T12:02:48.627Z,37.56
2018-04-08T12:05:17.658Z,34.95
2018-04-08T12:07:45.902Z,35.67
2018-04-08T12:10:14.929Z,34.31
2018-04-08T12:12:43.177Z,34.66
2018-04-08T12:15:12.207Z,34.22
2018-04-08T12:17:40.457Z,34.68
2018-04-08T12:20:08.717Z,36.32
2018-04-08T12:22:37.734Z,36.10
2018-04-08T12:25:05.993Z,33.22
2018-04-08T12:27:35.013Z,32.36
2018-04-08T12:30:03.270Z,34.13
2018-04-08T12:32:31.526Z,34.14
2018-04-08T12:35:00.550Z,34.15
2018-04-08T12:37:28.798Z,35.05
2018-04-08T12:39:57.823Z,31.93
2018-04-08T12:42:26.070Z,32.52
2018-04-08T12:44:55.092Z,32.39
2018-04-08T12:47:23.339Z,34.00
2018-04-08T12:49:52.361Z,33.57
2018-04-08T12:52:20.614Z,35.45
2018-04-08T12:54:49.638Z,33.71
2018-04-08T12:57:17.942Z,35.27
2018-04-08T12:59:46.142Z,34.45
2018-04-08T13:02:15.162Z,32.14
2018-04-08T13:04:43.421Z,33.47
2018-04-08T13:07:11.674Z,32.31
2018-04-08T13:09:39.938Z,30.71
2018-04-08T13:12:08.188Z,30.38
2018-04-08T13:14:36.451Z,32.25
2018-04-08T13:17:04.700Z,30.55
2018-04-08T13:19:33.727Z,30.60
2018-04-08T13:22:01.994Z,30.38
2018-04-08T13:24:30.231Z,30.79
2018-04-08T13:26:59.245Z,33.44
2018-04-08T13:29:27.501Z,31.83
2018-04-08T13:31:56.518Z,30.20
2018-04-08T13:34:24.769Z,32.24
2018-04-08T13:36:53.789Z,29.38
2018-04-08T13:39:22.045Z,29.17
2018-04-08T13:41:51.063Z,30.79
2018-04-08T13:44:19.317Z,30.37
2018-04-08T13:46:47.576Z,28.34
2018-04-08T13:49:16.593Z,28.01
2018-04-08T13:51:44.856Z,30.93
2018-04-08T13:54:13.870Z,28.41
2018-04-08T13:56:42.126Z,26.95
2018-04-08T13:59:11.138Z,28.38
2018-04-08T14:01:39.395Z,27.08
2018-04-08T14:04:08.410Z,30.96
2018-04-08T14:06:36.669Z,28.77
2018-04-08T14:09:06.543Z,29.87
2018-04-08T14:11:34.776Z,29.78
2018-04-08T14:14:03.022Z,30.37
2018-04-08T14:16:32.052Z,30.32
2018-04-08T14:19:00.299Z,30.24
2018-04-08T14:21:29.312Z,28.85
2018-04-08T14:23:57.573Z,30.21
2018-04-08T14:26:26.598Z,31.33
2018-04-08T14:28:54.844Z,26.15
2018-04-08T14:31:23.866Z,27.18
2018-04-08T14:33:52.113Z,27.49
2018-04-08T14:36:21.134Z,28.74
2018-04-08T14:38:49.385Z,29.22
2018-04-08T14:41:17.636Z,28.63
2018-04-08T14:43:45.892Z,28.76
2018-04-08T14:46:14.154Z,28.91
2018-04-08T14:48:42.421Z,27.50
2018-04-08T14:51:10.677Z,26.94
2018-04-08T14:53:38.927Z,26.74
2018-04-08T14:56:07.945Z,26.96
2018-04-08T14:58:36.197Z,25.75
2018-04-08T15:01:05.233Z,26.42
2018-04-08T15:03:33.482Z,26.18
2018-04-08T15:06:01.737Z,27.40
2018-04-08T15:08:30.754Z,27.78
2018-04-08T15:10:59.010Z,27.42
2018-04-08T15:13:28.020Z,28.71
2018-04-08T15:15:56.282Z,26.11
2018-04-08T15:18:25.295Z,28.23
2018-04-08T15:20:53.546Z,26.80
2018-04-08T15:23:22.562Z,26.20
2018-04-08T15:25:50.813Z,28.47
2018-04-08T15:28:19.830Z,26.73
2018-04-08T15:30:48.077Z,26.41
2018-04-08T15:33:16.331Z,27.55
2018-04-08T15:35:44.581Z,26.69
2018-04-08T15:38:12.834Z,27.33
2018-04-08T15:40:41.098Z,28.74
2018-04-08T15:43:10.109Z,26.76
2018-04-08T15:45:38.366Z,27.41
2018-04-08T15:48:07.380Z,27.21
2018-04-08T15:50:35.630Z,25.68
2018-04-08T15:53:04.646Z,26.73
2018-04-08T15:55:32.902Z,27.43
2018-04-08T15:58:01.919Z,28.44
2018-04-08T16:00:30.170Z,28.76
2018-04-08T16:02:59.206Z,28.37
2018-04-08T16:05:27.438Z,26.27
2018-04-08T16:07:55.690Z,28.14
2018-04-08T16:10:23.952Z,27.00
2018-04-08T16:12:52.205Z,28.62
2018-04-08T16:15:20.453Z,27.03
2018-04-08T16:17:48.698Z,27.96
2018-04-08T16:20:17.717Z,27.37
2018-04-08T16:22:45.972Z,28.26
2018-04-08T16:25:14.995Z,27.24
2018-04-08T16:27:43.266Z,26.98
2018-04-08T16:30:12.257Z,27.22
2018-04-08T16:32:40.517Z,26.76
2018-04-08T16:35:09.533Z,27.29
2018-04-08T16:37:37.787Z,26.16
2018-04-08T16:40:06.797Z,26.81
2018-04-08T16:42:35.053Z,27.92
2018-04-08T16:45:04.063Z,27.08
2018-04-08T16:47:32.320Z,27.71
2018-04-08T16:50:01.361Z,28.86
2018-04-08T16:52:30.341Z,30.68
2018-04-08T16:54:58.585Z,33.19
2018-04-08T16:57:27.609Z,34.23
2018-04-08T16:59:55.854Z,34.82
2018-04-08T17:02:24.880Z,35.71
2018-04-08T17:04:53.120Z,36.66
2018-04-08T17:07:22.149Z,37.26
2018-04-08T17:09:50.397Z,37.62
2018-04-08T17:12:18.653Z,38.38
2018-04-08T17:14:47.674Z,38.14
2018-04-08T17:17:15.939Z,38.98
2018-04-08T17:19:44.956Z,39.11
2018-04-08T17:22:13.210Z,40.02
2018-04-08T17:24:41.458Z,40.11
2018-04-08T17:27:09.722Z,40.62
2018-04-08T17:29:37.965Z,40.60
2018-04-08T17:32:06.233Z,41.08
2018-04-08T17:34:34.477Z,41.37
2018-04-08T17:37:03.494Z,41.58
2018-04-08T17:39:31.752Z,41.51
2018-04-08T17:42:00.773Z,41.85
2018-04-08T17:44:29.022Z,42.82
2018-04-08T17:46:58.049Z,43.34
2018-04-08T17:49:26.305Z,43.25
2018-04-08T17:51:54.588Z,43.39
2018-04-08T17:54:22.840Z,44.29
2018-04-08T17:56:51.854Z,44.89
2018-04-08T17:59:20.089Z,44.99
2018-04-08T18:01:49.118Z,45.54
2018-04-08T18:04:17.372Z,45.27
2018-04-08T18:06:46.394Z,45.46
2018-04-08T18:09:14.649Z,45.55
2018-04-08T18:11:42.902Z,45.75
2018-04-08T18:14:11.159Z,45.83
2018-04-08T18:16:39.418Z,46.36
2018-04-08T18:19:07.665Z,46.64
2018-04-08T18:21:35.921Z,46.47
2018-04-08T18:24:04.942Z,46.92
2018-04-08T18:26:33.195Z,46.72
2018-04-08T18:29:02.201Z,46.98
2018-04-08T18:31:30.462Z,47.28
2018-04-08T18:33:59.479Z,47.30
2018-04-08T18:36:27.735Z,47.44
2018-04-08T18:38:55.998Z,47.89
2018-04-08T18:41:25.015Z,48.19
2018-04-08T18:43:53.277Z,48.28
2018-04-08T18:46:22.293Z,48.40
2018-04-08T18:48:50.554Z,48.03
2018-04-08T18:51:18.813Z,48.40
2018-04-08T18:53:47.830Z,48.70
2018-04-08T18:56:16.084Z,48.73
2018-04-08T18:58:45.107Z,48.80
2018-04-08T19:01:13.366Z,49.33
2018-04-08T19:03:42.386Z,50.08
2018-04-08T19:06:10.635Z,50.34
2018-04-08T19:08:38.889Z,50.50
2018-04-08T19:11:07.901Z,50.85
2018-04-08T19:13:36.162Z,51.00
2018-04-08T19:16:05.182Z,51.13
2018-04-08T19:18:33.433Z,51.03
2018-04-08T19:21:02.452Z,51.52
2018-04-08T19:23:30.765Z,51.36
2018-04-08T19:25:59.098Z,51.27
2018-04-08T19:28:27.357Z,51.27
2018-04-08T19:30:56.374Z,50.95
2018-04-08T19:33:24.639Z,50.50
2018-04-08T19:35:52.885Z,50.52
2018-04-08T19:38:21.149Z,50.59
2018-04-08T19:40:49.398Z,51.04
2018-04-08T19:43:17.708Z,51.62
2018-04-08T19:45:45.948Z,52.08
2018-04-08T19:48:14.205Z,52.68
2018-04-08T19:50:42.456Z,53.12
2018-04-08T19:53:11.480Z,53.57
2018-04-08T19:55:39.733Z,53.98
2018-04-08T19:58:07.999Z,55.34
2018-04-08T20:00:37.009Z,55.34
2018-04-08T20:03:05.269Z,55.49
2018-04-08T20:05:34.282Z,55.48
2018-04-08T20:08:02.542Z,56.53
2018-04-08T20:10:31.580Z,57.23
2018-04-08T20:12:59.858Z,56.80
2018-04-08T20:15:28.150Z,57.31
2018-04-08T20:17:56.409Z,57.21
2018-04-08T20:20:24.663Z,55.61
2018-04-08T20:22:52.927Z,54.75
2018-04-08T20:25:21.172Z,54.00
2018-04-08T20:27:50.217Z,53.03
2018-04-08T20:30:18.539Z,52.76
2018-04-08T20:32:46.798Z,53.13
2018-04-08T20:35:15.150Z,53.58
2018-04-08T20:37:43.410Z,54.08
2018-04-08T20:40:11.671Z,55.07
2018-04-08T20:42:40.745Z,54.76
2018-04-08T20:45:09.079Z,54.14
2018-04-08T20:47:37.330Z,53.85
2018-04-08T20:50:05.579Z,53.41
2018-04-08T20:52:34.602Z,53.40
2018-04-08T20:55:02.930Z,53.58
2018-04-08T20:57:31.262Z,53.81
2018-04-08T20:59:59.595Z,54.06
2018-04-08T21:02:27.856Z,54.35
2018-04-08T21:04:56.106Z,54.69
2018-04-08T21:07:24.369Z,55.15
2018-04-08T21:09:52.618Z,55.46
2018-04-08T21:12:20.881Z,55.39
2018-04-08T21:14:49.908Z,55.63
2018-04-08T21:17:18.194Z,55.85
2018-04-08T21:19:46.450Z,55.96
2018-04-08T21:22:14.711Z,56.28
2018-04-08T21:24:42.961Z,56.48
2018-04-08T21:27:11.247Z,56.58
2018-04-08T21:29:39.544Z,56.78
2018-04-08T21:32:07.818Z,56.92
2018-04-08T21:34:36.120Z,56.85
2018-04-08T21:37:04.466Z,56.82
2018-04-08T21:39:33.494Z,56.97
2018-04-08T21:42:01.774Z,57.26
2018-04-08T21:44:30.034Z,57.41
2018-04-08T21:46:58.285Z,57.81
2018-04-08T21:49:27.324Z,58.22
2018-04-08T21:51:55.579Z,58.45
2018-04-08T21:54:23.833Z,58.45
2018-04-08T21:56:52.859Z,58.87
2018-04-08T21:59:21.117Z,58.88
2018-04-08T22:01:49.425Z,59.14
2018-04-08T22:04:18.400Z,59.46
2018-04-08T22:06:46.645Z,59.86
2018-04-08T22:09:15.667Z,60.39
2018-04-08T22:11:43.935Z,60.71
2018-04-08T22:14:12.186Z,60.83
2018-04-08T22:16:41.218Z,60.78
2018-04-08T22:19:09.476Z,60.89
2018-04-08T22:21:37.738Z,60.89
2018-04-08T22:24:06.783Z,60.85
2018-04-08T22:26:35.059Z,60.80
2018-04-08T22:29:03.302Z,60.90
2018-04-08T22:31:31.562Z,60.65
2018-04-08T22:34:00.006Z,60.71
2018-04-08T22:36:28.278Z,61.28
2018-04-08T22:38:56.530Z,61.36
2018-04-08T22:41:24.790Z,61.39
2018-04-08T22:43:53.042Z,61.42
2018-04-08T22:46:22.141Z,61.53
2018-04-08T22:48:50.341Z,61.88
2018-04-08T22:51:18.598Z,62.12
2018-04-08T22:53:46.849Z,62.39
2018-04-08T22:56:16.582Z,62.36
2018-04-08T22:58:44.834Z,62.55
2018-04-08T23:01:13.873Z,62.55
2018-04-08T23:03:42.130Z,62.64
2018-04-08T23:06:10.378Z,62.25
2018-04-08T23:08:39.406Z,62.30
2018-04-08T23:11:07.662Z,62.42
2018-04-08T23:13:35.925Z,62.10
2018-04-08T23:16:04.946Z,62.26
2018-04-08T23:18:33.217Z,62.00
2018-04-08T23:21:01.470Z,62.00
2018-04-08T23:23:30.502Z,62.17
2018-04-08T23:25:58.757Z,62.33
2018-04-08T23:28:27.025Z,62.62
2018-04-08T23:30:56.055Z,63.04
2018-04-08T23:33:24.315Z,63.54
2018-04-08T23:35:52.574Z,63.75
2018-04-08T23:38:21.604Z,63.87
2018-04-08T23:40:49.862Z,64.19
2018-04-08T23:43:18.126Z,64.24
2018-04-08T23:45:46.382Z,64.17
2018-04-08T23:48:15.412Z,64.44
2018-04-08T23:50:43.667Z,64.55
2018-04-08T23:53:11.945Z,64.77
2018-04-08T23:55:40.211Z,65.27
2018-04-08T23:58:09.235Z,65.47
